Time;durP1;ratioP1;P1;durP2;ratioP2;P2;SDS_P1;SDS_P2;PMS_P1;PMS_P2;Temp;Humidity;BMP_temperature;BMP_pressure;BME280_temperature;BME280_humidity;BME280_pressure;Samples;Min_cycle;Max_cycle;Signal;HPM_P1;HPM_P2
2022/09/16 00:00:46;;;;;;;3.03;1.30;;;;;;;9.93;100.00;101030.06;4973973;28;20212;-88
2022/09/16 00:03:16;;;;;;;5.00;1.20;;;;;;;10.16;100.00;101052.91;4973936;28;20058;-88
2022/09/16 00:05:45;;;;;;;4.82;1.45;;;;;;;10.00;100.00;101047.28;4957056;28;20497;-88
2022/09/16 00:08:13;;;;;;;6.05;1.45;;;;;;;10.22;100.00;101065.81;4973198;28;20473;-88
2022/09/16 00:10:42;;;;;;;4.90;1.20;;;;;;;9.95;100.00;101057.03;4956578;28;20055;-89
2022/09/16 00:13:10;;;;;;;4.70;1.30;;;;;;;10.05;100.00;101058.47;4956210;28;20050;-88
2022/09/16 00:15:41;;;;;;;7.07;1.40;;;;;;;10.12;100.00;101072.22;4956154;28;20477;-88
2022/09/16 00:18:08;;;;;;;6.75;1.10;;;;;;;10.13;100.00;101056.50;4952348;28;20043;-88
2022/09/16 00:20:35;;;;;;;5.20;1.20;;;;;;;10.11;100.00;101076.63;4957215;28;20058;-88
2022/09/16 00:23:01;;;;;;;7.10;1.40;;;;;;;10.01;100.00;101060.31;4956339;28;20054;-87
2022/09/16 00:25:28;;;;;;;5.80;1.73;;;;;;;10.16;100.00;101050.28;4956379;28;20057;-87
2022/09/16 00:27:55;;;;;;;4.75;1.33;;;;;;;10.27;100.00;101066.53;4949101;29;20051;-87
2022/09/16 00:30:21;;;;;;;7.70;1.40;;;;;;;10.11;100.00;101060.03;4946910;28;20074;-87
2022/09/16 00:32:48;;;;;;;6.50;1.38;;;;;;;9.86;100.00;101032.00;4956992;28;20073;-87
2022/09/16 00:35:15;;;;;;;4.97;1.20;;;;;;;10.22;100.00;101056.19;4956732;28;20394;-88
2022/09/16 00:37:41;;;;;;;9.93;1.50;;;;;;;9.81;100.00;101067.91;4950866;28;20066;-88
2022/09/16 00:40:09;;;;;;;8.65;1.90;;;;;;;10.24;100.00;101108.50;4950097;28;20051;-88
2022/09/16 00:42:39;;;;;;;5.57;1.13;;;;;;;10.35;100.00;101093.34;4956232;28;20047;-88
2022/09/16 00:45:15;;;;;;;6.43;1.52;;;;;;;10.40;100.00;101103.69;4968442;28;20051;-87
2022/09/16 00:47:58;;;;;;;7.35;1.77;;;;;;;10.36;100.00;101078.50;4938218;28;20754;-86
2022/09/16 00:50:35;;;;;;;6.32;1.48;;;;;;;10.39;100.00;101099.34;4950488;28;20135;-86
2022/09/16 00:53:03;;;;;;;5.30;1.55;;;;;;;10.20;100.00;101076.34;4944405;28;20050;-87
2022/09/16 00:55:34;;;;;;;6.63;1.40;;;;;;;10.18;100.00;101072.91;4941850;28;20379;-86
2022/09/16 00:58:13;;;;;;;12.32;1.55;;;;;;;10.29;100.00;101090.91;4954909;28;20408;-86
2022/09/16 01:00:41;;;;;;;9.98;1.73;;;;;;;10.11;100.00;101074.00;4955123;28;20106;-86
2022/09/16 01:03:08;;;;;;;8.63;1.60;;;;;;;10.13;100.00;101085.28;4955418;28;20055;-86
2022/09/16 01:05:36;;;;;;;8.23;1.75;;;;;;;9.99;100.00;101061.28;4955764;28;20055;-86
2022/09/16 01:08:04;;;;;;;8.45;1.50;;;;;;;10.10;100.00;101095.81;4970305;28;20102;-86
2022/09/16 01:10:31;;;;;;;6.70;1.45;;;;;;;10.15;100.00;101072.16;4969404;28;20054;-87
2022/09/16 01:13:03;;;;;;;3.85;1.20;;;;;;;10.24;100.00;101088.41;4961507;28;20046;-87
2022/09/16 01:15:45;;;;;;;13.50;1.90;;;;;;;10.15;100.00;101078.22;4970095;28;20051;-88
2022/09/16 01:18:30;;;;;;;6.35;1.48;;;;;;;10.06;100.00;101088.97;4944034;28;20090;-87
2022/09/16 01:21:00;;;;;;;7.88;1.40;;;;;;;9.76;100.00;101088.97;4943213;29;20055;-88
2022/09/16 01:23:26;;;;;;;7.28;1.65;;;;;;;9.58;100.00;101092.06;4968666;28;20046;-87
2022/09/16 01:26:23;;;;;;;9.43;1.52;;;;;;;9.59;100.00;101085.97;4951551;29;20118;-87
2022/09/16 01:28:59;;;;;;;5.75;1.50;;;;;;;9.53;100.00;101083.53;4949792;28;20050;-87
2022/09/16 01:31:46;;;;;;;8.05;1.73;;;;;;;9.50;100.00;101081.84;4948215;29;20047;-88
2022/09/16 01:34:33;;;;;;;7.57;1.60;;;;;;;9.53;100.00;101080.91;4946760;28;20058;-87
2022/09/16 01:37:18;;;;;;;6.55;2.20;;;;;;;9.41;100.00;101064.66;4959485;28;20050;-87
2022/09/16 01:40:17;;;;;;;10.48;2.05;;;;;;;9.45;100.00;101070.66;4959131;28;20058;-88
2022/09/16 01:43:02;;;;;;;7.47;1.50;;;;;;;9.44;100.00;101075.03;4947361;28;20400;-87
2022/09/16 01:45:38;;;;;;;7.78;1.98;;;;;;;9.53;100.00;101087.00;4958577;28;20485;-87
2022/09/16 01:48:23;;;;;;;10.63;1.67;;;;;;;9.06;100.00;101084.72;4976049;28;20558;-87
2022/09/16 01:51:04;;;;;;;7.15;1.60;;;;;;;9.34;100.00;101076.19;4959316;28;20054;-86
2022/09/16 01:53:40;;;;;;;8.40;1.67;;;;;;;9.30;100.00;101104.16;4959677;28;20054;-86
2022/09/16 01:56:10;;;;;;;8.95;1.70;;;;;;;9.38;100.00;101092.63;4944266;28;20043;-87
2022/09/16 01:58:49;;;;;;;7.80;1.40;;;;;;;9.54;100.00;101101.75;4950793;28;20097;-87
2022/09/16 02:01:48;;;;;;;13.77;2.72;;;;;;;9.59;100.00;101086.81;4976269;28;20105;-87
2022/09/16 02:04:22;;;;;;;7.20;1.63;;;;;;;9.69;100.00;101079.59;4958684;28;20062;-86
2022/09/16 02:06:51;;;;;;;9.95;2.35;;;;;;;9.49;100.00;101069.66;4959253;28;20465;-86
2022/09/16 02:09:28;;;;;;;9.52;1.83;;;;;;;9.66;100.00;101092.72;4958527;28;20047;-87
2022/09/16 02:11:59;;;;;;;13.05;2.33;;;;;;;9.41;100.00;101093.41;4967861;28;20105;-87
2022/09/16 02:14:30;;;;;;;9.50;1.80;;;;;;;9.20;100.00;101070.47;4958548;28;20054;-87
2022/09/16 02:17:05;;;;;;;7.50;1.83;;;;;;;9.47;100.00;101088.03;4958449;28;20047;-86
2022/09/16 02:19:41;;;;;;;10.75;2.20;;;;;;;9.32;100.00;101093.66;4958822;28;20102;-85
2022/09/16 02:22:13;;;;;;;9.23;1.77;;;;;;;9.31;100.00;101100.66;4958146;28;20166;-86
2022/09/16 02:24:44;;;;;;;10.30;2.55;;;;;;;9.19;100.00;101093.13;4959015;28;20050;-86
2022/09/16 02:27:16;;;;;;;12.45;1.70;;;;;;;9.39;100.00;101071.69;4974564;28;20051;-86
2022/09/16 02:29:54;;;;;;;12.10;2.47;;;;;;;9.28;100.00;101069.38;4951300;28;20046;-86
2022/09/16 02:32:24;;;;;;;7.57;1.35;;;;;;;9.21;100.00;101077.41;4958947;28;20050;-87
2022/09/16 02:34:53;;;;;;;8.75;1.50;;;;;;;9.31;100.00;101084.97;4958386;28;20059;-88
2022/09/16 02:37:23;;;;;;;11.52;1.70;;;;;;;9.13;100.00;101094.13;4944722;28;20050;-88
2022/09/16 02:39:54;;;;;;;8.88;1.95;;;;;;;9.09;100.00;101089.03;4959190;28;20106;-88
2022/09/16 02:42:21;;;;;;;9.10;1.50;;;;;;;9.17;100.00;101094.06;4958272;28;20057;-88
2022/09/16 02:44:48;;;;;;;11.77;1.55;;;;;;;9.40;100.00;101078.66;4956232;28;20058;-88
2022/09/16 02:47:26;;;;;;;8.73;1.50;;;;;;;9.37;100.00;101078.72;4956746;28;20054;-87
2022/09/16 02:50:06;;;;;;;6.47;1.70;;;;;;;9.69;100.00;101092.66;4950878;28;20093;-87
2022/09/16 02:52:56;;;;;;;7.82;1.70;;;;;;;9.40;100.00;101081.25;4958717;28;20408;-87
2022/09/16 02:55:36;;;;;;;7.22;1.42;;;;;;;9.55;100.00;101098.25;4957383;28;20054;-87
2022/09/16 02:58:06;;;;;;;6.45;1.45;;;;;;;9.48;100.00;101091.50;4957301;28;20058;-87
2022/09/16 03:00:38;;;;;;;7.05;1.52;;;;;;;9.37;100.00;101090.94;4947299;28;20059;-88
2022/09/16 03:03:05;;;;;;;8.75;1.40;;;;;;;9.32;100.00;101088.44;4944303;28;20061;-88
2022/09/16 03:05:34;;;;;;;10.05;1.92;;;;;;;9.30;100.00;101101.53;4956271;28;20054;-88
2022/09/16 03:08:02;;;;;;;5.88;1.75;;;;;;;9.30;100.00;101091.09;4952422;28;20059;-87
2022/09/16 03:10:38;;;;;;;4.25;1.27;;;;;;;9.11;100.00;101100.31;4958186;28;20192;-88
2022/09/16 03:13:21;;;;;;;8.73;1.27;;;;;;;8.89;100.00;101084.34;4974779;28;20054;-87
2022/09/16 03:16:11;;;;;;;5.65;1.25;;;;;;;8.96;100.00;101091.13;4957072;28;20118;-88
2022/09/16 03:19:27;;;;;;;3.83;1.13;;;;;;;8.80;100.00;101080.19;4957375;28;20050;-88
2022/09/16 03:22:05;;;;;;;4.40;1.10;;;;;;;8.93;100.00;101092.03;4888108;29;20060;-87
2022/09/16 03:24:59;;;;;;;6.50;1.50;;;;;;;9.08;100.00;101116.94;4899420;29;20056;-87
2022/09/16 03:27:31;;;;;;;;;;;;;;;8.91;100.00;101100.81;4953096;28;20382;-87
2022/09/16 03:30:07;;;;;;;6.68;1.40;;;;;;;8.77;100.00;101067.22;4955495;28;19921;-87
2022/09/16 03:32:40;;;;;;;11.02;1.63;;;;;;;8.90;100.00;101086.88;4957457;28;20050;-87
2022/09/16 03:35:32;;;;;;;8.48;1.55;;;;;;;9.08;100.00;101113.44;4974388;28;20046;-87
2022/09/16 03:38:01;;;;;;;6.35;1.70;;;;;;;8.92;100.00;101094.69;4971725;28;20055;-87
2022/09/16 03:40:31;;;;;;;8.07;1.33;;;;;;;8.99;100.00;101111.06;4957534;28;20473;-88
2022/09/16 03:42:58;;;;;;;6.15;1.35;;;;;;;9.07;100.00;101115.19;4957686;28;20158;-88
2022/09/16 03:45:24;;;;;;;3.17;1.10;;;;;;;8.99;100.00;101106.69;4956339;28;20110;-87
2022/09/16 03:47:52;;;;;;;4.13;1.20;;;;;;;8.97;100.00;101136.34;4950478;28;20363;-87
2022/09/16 03:50:20;;;;;;;6.15;1.35;;;;;;;8.96;100.00;101140.72;4970844;28;20703;-88
2022/09/16 03:52:47;;;;;;;4.63;1.20;;;;;;;9.05;100.00;101135.28;4957497;28;20062;-88
2022/09/16 03:55:15;;;;;;;7.20;1.30;;;;;;;8.85;100.00;101122.72;4957304;28;20054;-88
2022/09/16 03:57:42;;;;;;;4.25;1.38;;;;;;;8.91;100.00;101132.16;4952188;28;20529;-87
2022/09/16 04:00:10;;;;;;;6.10;1.70;;;;;;;8.91;100.00;101142.59;4951732;28;20051;-87
2022/09/16 04:02:37;;;;;;;11.88;1.75;;;;;;;8.67;100.00;101138.81;4957175;28;20097;-87
2022/09/16 04:05:04;;;;;;;7.15;1.38;;;;;;;8.95;100.00;101146.84;4956642;28;20138;-86
2022/09/16 04:07:32;;;;;;;10.05;1.80;;;;;;;8.88;100.00;101143.50;4953364;29;20062;-87
2022/09/16 04:10:00;;;;;;;6.32;1.30;;;;;;;8.74;100.00;101159.50;4944326;28;20126;-87
2022/09/16 04:12:28;;;;;;;7.07;1.65;;;;;;;8.93;100.00;101159.94;4954570;28;20105;-87
2022/09/16 04:14:55;;;;;;;7.30;1.60;;;;;;;8.93;100.00;101141.66;4952779;28;20105;-87
2022/09/16 04:17:22;;;;;;;5.88;1.77;;;;;;;8.98;100.00;101156.34;4954416;28;20051;-87
2022/09/16 04:19:50;;;;;;;8.52;1.48;;;;;;;8.96;100.00;101158.13;4956252;28;20457;-86
2022/09/16 04:22:17;;;;;;;6.70;1.77;;;;;;;8.89;100.00;101142.63;4956168;28;20051;-87
2022/09/16 04:24:43;;;;;;;6.10;1.52;;;;;;;8.79;100.00;101140.28;4955111;28;20058;-87
2022/09/16 04:27:10;;;;;;;8.00;1.90;;;;;;;8.93;100.00;101140.81;4955127;28;20051;-89
2022/09/16 04:29:37;;;;;;;9.90;1.40;;;;;;;8.69;100.00;101139.63;4950236;28;20676;-88
2022/09/16 04:32:03;;;;;;;13.68;1.83;;;;;;;8.58;100.00;101112.91;4953899;28;20113;-86
2022/09/16 04:34:31;;;;;;;6.13;1.67;;;;;;;8.62;100.00;101135.44;4952354;28;20478;-87
2022/09/16 04:36:58;;;;;;;6.38;2.08;;;;;;;8.67;100.00;101146.63;4950022;28;20468;-87
2022/09/16 04:39:24;;;;;;;5.18;1.30;;;;;;;8.53;100.00;101141.72;4955878;28;20102;-87
2022/09/16 04:41:51;;;;;;;6.45;1.75;;;;;;;8.76;100.00;101150.78;4954864;28;20133;-86
2022/09/16 04:44:18;;;;;;;8.38;1.40;;;;;;;8.80;100.00;101134.16;4956712;28;20481;-87
2022/09/16 04:46:44;;;;;;;9.60;1.55;;;;;;;8.80;100.00;101134.16;4956852;28;20488;-87
2022/09/16 04:49:11;;;;;;;7.35;1.63;;;;;;;8.57;100.00;101111.19;4950670;28;20612;-89
2022/09/16 04:51:38;;;;;;;12.05;2.30;;;;;;;8.79;100.00;101112.41;4956947;28;20062;-89
2022/09/16 04:54:05;;;;;;;10.02;1.92;;;;;;;8.85;100.00;101155.78;4973836;28;20101;-88
2022/09/16 04:56:32;;;;;;;7.90;2.22;;;;;;;8.97;100.00;101157.25;4952619;28;20095;-87
2022/09/16 04:59:01;;;;;;;11.00;1.80;;;;;;;8.98;100.00;101157.22;4948856;28;20572;-88
2022/09/16 05:01:31;;;;;;;6.57;2.00;;;;;;;8.61;100.00;101105.03;4961379;28;20106;-88
2022/09/16 05:04:01;;;;;;;7.75;1.65;;;;;;;8.69;100.00;101130.06;4976442;28;20110;-88
2022/09/16 05:06:36;;;;;;;6.30;1.50;;;;;;;8.63;100.00;101108.44;4960631;28;20449;-88
2022/09/16 05:09:03;;;;;;;6.45;1.50;;;;;;;8.56;100.00;101094.69;4970891;28;20062;-88
2022/09/16 05:11:33;;;;;;;9.88;1.80;;;;;;;8.80;100.00;101134.16;4977023;28;20051;-88
2022/09/16 05:14:01;;;;;;;7.32;2.20;;;;;;;8.98;100.00;101159.84;4971867;28;20055;-86
2022/09/16 05:16:29;;;;;;;11.60;1.83;;;;;;;8.94;100.00;101155.56;4959621;28;20066;-88
2022/09/16 05:18:57;;;;;;;8.55;1.70;;;;;;;8.85;100.00;101159.28;4976231;28;20078;-88
2022/09/16 05:21:26;;;;;;;8.82;1.70;;;;;;;8.71;100.00;101130.88;4959589;28;20050;-89
2022/09/16 05:23:54;;;;;;;7.60;2.03;;;;;;;8.95;100.00;101153.81;4970072;28;20072;-88
2022/09/16 05:26:24;;;;;;;8.43;1.85;;;;;;;8.99;100.00;101166.75;4960085;28;20496;-88
2022/09/16 05:28:52;;;;;;;12.27;1.60;;;;;;;8.90;100.00;101148.69;4959854;28;20485;-88
2022/09/16 05:31:21;;;;;;;7.75;1.35;;;;;;;8.90;100.00;101139.09;4959832;28;20046;-89
2022/09/16 05:33:55;;;;;;;8.15;1.55;;;;;;;9.00;100.00;101162.41;4971030;28;20051;-88
2022/09/16 05:36:23;;;;;;;6.95;1.90;;;;;;;8.99;100.00;101179.81;4956389;28;20058;-87
2022/09/16 05:38:50;;;;;;;9.00;2.25;;;;;;;8.92;100.00;101162.56;4967973;28;20679;-87
2022/09/16 05:41:37;;;;;;;9.23;2.25;;;;;;;8.91;100.00;101169.56;4954208;28;20181;-86
2022/09/16 05:44:06;;;;;;;9.60;1.83;;;;;;;8.81;100.00;101159.38;4969084;28;20057;-87
2022/09/16 05:46:34;;;;;;;7.22;2.42;;;;;;;9.25;100.00;101184.41;4953579;28;20495;-86
2022/09/16 05:49:01;;;;;;;11.52;2.40;;;;;;;9.02;100.00;101177.13;4949709;28;20082;-86
2022/09/16 05:51:30;;;;;;;11.90;1.85;;;;;;;9.20;100.00;101181.06;4970729;28;20062;-87
2022/09/16 05:53:58;;;;;;;11.70;1.73;;;;;;;9.11;100.00;101173.44;4948425;28;20051;-88
2022/09/16 05:56:27;;;;;;;10.55;1.75;;;;;;;9.24;100.00;101193.16;4950957;28;20083;-90
2022/09/16 05:58:58;;;;;;;7.95;1.70;;;;;;;9.23;100.00;101180.13;4953797;28;20062;-90
2022/09/16 06:01:34;;;;;;;11.00;1.95;;;;;;;9.17;100.00;101189.00;4952947;29;20497;-91
2022/09/16 06:04:04;;;;;;;16.10;3.10;;;;;;;9.11;100.00;101189.13;4955066;28;20051;-86
2022/09/16 06:06:36;;;;;;;16.45;2.25;;;;;;;9.22;100.00;101194.94;4959134;28;20068;-86
2022/09/16 06:09:21;;;;;;;12.55;1.88;;;;;;;8.96;100.00;101166.84;4947360;28;20055;-86
2022/09/16 06:11:50;;;;;;;8.68;1.67;;;;;;;9.15;100.00;101205.56;4973597;28;20051;-85
2022/09/16 06:14:18;;;;;;;12.48;2.10;;;;;;;9.11;100.00;101199.56;4958008;28;20055;-86
2022/09/16 06:16:45;;;;;;;9.15;1.65;;;;;;;9.02;100.00;101169.31;4943664;28;20062;-85
2022/09/16 06:19:16;;;;;;;7.65;1.70;;;;;;;9.29;100.00;101187.81;4972992;28;20047;-86
2022/09/16 06:21:43;;;;;;;7.10;1.73;;;;;;;8.99;100.00;101147.63;4976072;28;20058;-86
2022/09/16 06:24:12;;;;;;;12.90;2.00;;;;;;;8.92;100.00;101144.28;4958792;28;20050;-86
2022/09/16 06:26:41;;;;;;;13.75;2.60;;;;;;;9.07;100.00;101177.03;4961116;28;20082;-86
2022/09/16 06:29:09;;;;;;;9.55;1.77;;;;;;;9.10;100.00;101210.91;4972547;28;20547;-87
2022/09/16 06:31:37;;;;;;;17.63;2.30;;;;;;;8.53;100.00;101165.22;4946711;28;20089;-85
2022/09/16 06:34:05;;;;;;;11.38;2.03;;;;;;;8.82;100.00;101184.56;4972260;28;20063;-85
2022/09/16 06:36:37;;;;;;;12.07;2.45;;;;;;;9.16;100.00;101208.16;4954134;29;20051;-85
2022/09/16 06:39:14;;;;;;;13.93;2.20;;;;;;;9.01;100.00;101191.13;4958159;28;20130;-86
2022/09/16 06:41:42;;;;;;;6.45;1.55;;;;;;;9.06;100.00;101184.00;4975686;28;20047;-85
2022/09/16 06:44:08;;;;;;;12.27;2.08;;;;;;;9.21;100.00;101192.38;4956760;28;20482;-86
2022/09/16 06:46:36;;;;;;;13.10;2.15;;;;;;;9.22;100.00;101181.88;4953682;28;20055;-85
2022/09/16 06:49:03;;;;;;;9.60;1.75;;;;;;;9.13;100.00;101188.16;4952271;28;20082;-85
2022/09/16 06:51:33;;;;;;;10.75;2.00;;;;;;;9.31;100.00;101227.81;4954477;28;20051;-86
2022/09/16 06:54:05;;;;;;;11.20;2.05;;;;;;;9.41;100.00;101234.53;4975553;28;20476;-86
2022/09/16 06:56:36;;;;;;;12.90;2.33;;;;;;;9.41;100.00;101213.63;4971220;28;20062;-86
2022/09/16 06:59:04;;;;;;;6.20;1.35;;;;;;;9.31;100.00;101209.53;4950598;28;20108;-86
2022/09/16 07:01:32;;;;;;;10.73;1.80;;;;;;;9.33;100.00;101223.44;4951379;28;20989;-85
2022/09/16 07:04:04;;;;;;;11.10;2.15;;;;;;;9.17;100.00;101222.06;4957888;28;20146;-85
2022/09/16 07:06:31;;;;;;;8.45;1.88;;;;;;;9.26;100.00;101232.28;4949699;28;20055;-85
2022/09/16 07:09:18;;;;;;;12.88;2.22;;;;;;;8.91;100.00;101180.00;4972418;28;20058;-86
2022/09/16 07:11:45;;;;;;;9.27;1.75;;;;;;;9.14;100.00;101196.88;4954458;28;20059;-85
2022/09/16 07:14:11;;;;;;;10.50;1.92;;;;;;;10.01;100.00;101240.84;4957627;28;20073;-85
2022/09/16 07:16:38;;;;;;;11.48;1.77;;;;;;;10.69;100.00;101238.06;4954148;28;20073;-86
2022/09/16 07:19:05;;;;;;;14.20;1.90;;;;;;;11.21;100.00;101270.53;4971603;28;20138;-86
2022/09/16 07:21:32;;;;;;;11.15;2.58;;;;;;;11.22;100.00;101209.34;4974623;28;20433;-86
2022/09/16 07:24:01;;;;;;;8.57;1.92;;;;;;;11.30;100.00;101237.94;4971175;28;20525;-86
2022/09/16 07:26:30;;;;;;;7.20;2.15;;;;;;;11.51;100.00;101233.72;4969715;28;20516;-86
2022/09/16 07:28:59;;;;;;;9.50;2.10;;;;;;;11.93;100.00;101236.69;4968615;28;20105;-86
2022/09/16 07:31:28;;;;;;;9.40;1.80;;;;;;;11.98;100.00;101261.91;4961541;28;20043;-85
2022/09/16 07:33:57;;;;;;;9.18;1.90;;;;;;;11.22;100.00;101230.31;4960015;28;20047;-87
2022/09/16 07:36:36;;;;;;;13.35;2.30;;;;;;;11.01;100.00;101281.63;4974858;28;20055;-85
2022/09/16 07:39:04;;;;;;;9.80;2.30;;;;;;;11.18;100.00;101275.88;4952523;28;20046;-85
2022/09/16 07:41:36;;;;;;;11.15;1.90;;;;;;;11.16;100.00;101261.97;4974010;28;20102;-85
2022/09/16 07:44:03;;;;;;;7.55;2.22;;;;;;;11.00;100.00;101238.84;4953142;28;20402;-86
2022/09/16 07:46:33;;;;;;;9.80;1.80;;;;;;;11.23;100.00;101278.38;4972409;28;20050;-85
2022/09/16 07:49:02;;;;;;;8.73;1.95;;;;;;;11.24;100.00;101259.09;4950800;28;20054;-86
2022/09/16 07:51:30;;;;;;;15.65;2.35;;;;;;;11.24;100.00;101243.38;4957105;28;20058;-85
2022/09/16 07:53:59;;;;;;;11.52;2.00;;;;;;;11.98;100.00;101288.16;4974467;28;20083;-86
2022/09/16 07:56:29;;;;;;;12.30;2.22;;;;;;;11.96;100.00;101280.34;4957049;28;20054;-85
2022/09/16 07:58:57;;;;;;;12.85;2.28;;;;;;;12.23;100.00;101273.25;4975504;28;20057;-87
2022/09/16 08:01:24;;;;;;;11.70;2.13;;;;;;;11.89;100.00;101289.28;4954487;28;20055;-87
2022/09/16 08:03:52;;;;;;;7.30;2.00;;;;;;;12.16;100.00;101245.50;4958230;28;20528;-86
2022/09/16 08:06:20;;;;;;;11.77;1.95;;;;;;;12.42;100.00;101251.59;4975551;28;20564;-87
2022/09/16 08:08:50;;;;;;;11.85;2.08;;;;;;;12.34;100.00;101259.72;4958402;28;20481;-87
2022/09/16 08:11:17;;;;;;;12.40;1.90;;;;;;;12.48;100.00;101275.84;4958166;28;20381;-86
2022/09/16 08:13:45;;;;;;;15.18;2.10;;;;;;;12.46;100.00;101311.78;4975344;28;20517;-86
2022/09/16 08:16:14;;;;;;;11.50;2.20;;;;;;;12.08;100.00;101284.31;4975228;28;20149;-86
2022/09/16 08:18:42;;;;;;;9.45;2.38;;;;;;;11.64;100.00;101284.88;4955003;28;20070;-86
2022/09/16 08:21:14;;;;;;;8.65;1.88;;;;;;;11.28;100.00;101250.22;4975547;28;20051;-86
2022/09/16 08:23:40;;;;;;;10.20;2.00;;;;;;;11.62;100.00;101304.22;4958243;28;20055;-86
2022/09/16 08:26:12;;;;;;;7.32;1.60;;;;;;;11.32;100.00;101304.28;4957950;28;20504;-86
2022/09/16 08:28:41;;;;;;;10.27;2.15;;;;;;;10.76;100.00;101302.47;4969981;28;20063;-85
2022/09/16 08:31:23;;;;;;;12.10;2.17;;;;;;;11.29;100.00;101296.50;4956311;28;20493;-86
2022/09/16 08:33:50;;;;;;;7.93;2.05;;;;;;;11.92;100.00;101313.69;4960075;28;20057;-89
2022/09/16 08:36:22;;;;;;;11.45;2.00;;;;;;;11.89;100.00;101316.38;4963453;28;20401;-88
2022/09/16 08:38:53;;;;;;;7.90;2.03;;;;;;;11.60;100.00;101272.78;4958948;28;20477;-88
2022/09/16 08:41:50;;;;;;;9.35;2.10;;;;;;;12.46;100.00;101321.44;4957865;28;20047;-89
2022/09/16 08:44:56;;;;;;;10.02;1.95;;;;;;;12.73;100.00;101336.22;4966459;28;20453;-89
2022/09/16 08:47:40;;;;;;;8.70;1.75;;;;;;;11.83;100.00;101339.34;4967768;28;20102;-91
2022/09/16 08:50:15;;;;;;;12.43;2.28;;;;;;;11.66;100.00;101347.78;4947244;28;20098;-88
2022/09/16 08:52:44;;;;;;;11.48;2.13;;;;;;;11.42;100.00;101325.81;4976731;28;20498;-89
2022/09/16 08:55:31;;;;;;;10.50;1.88;;;;;;;11.31;100.00;101347.97;4949804;28;20050;-90
2022/09/16 08:58:11;;;;;;;10.27;2.20;;;;;;;11.64;100.00;101329.47;4955488;28;20453;-89
2022/09/16 09:00:39;;;;;;;11.45;2.08;;;;;;;11.90;100.00;101315.53;4958079;28;20047;-87
2022/09/16 09:03:21;;;;;;;10.63;2.53;;;;;;;11.48;100.00;101308.13;4960646;28;20065;-87
2022/09/16 09:05:59;;;;;;;11.02;2.05;;;;;;;11.99;100.00;101344.97;4953388;28;20524;-88
2022/09/16 09:08:34;;;;;;;11.63;2.05;;;;;;;12.26;100.00;101358.94;4958004;28;20055;-88
2022/09/16 09:11:15;;;;;;;9.88;1.70;;;;;;;12.17;100.00;101362.72;4978030;28;20058;-89
2022/09/16 09:13:47;;;;;;;10.77;1.83;;;;;;;11.89;100.00;101326.88;4976815;28;20497;-88
2022/09/16 09:17:00;;;;;;;8.07;1.85;;;;;;;12.40;100.00;101354.06;4976813;28;20063;-90
2022/09/16 09:20:12;;;;;;;9.25;2.22;;;;;;;12.57;100.00;101361.34;4886494;29;20108;-90
2022/09/16 09:22:53;;;;;;;12.57;2.17;;;;;;;12.79;100.00;101361.41;4886424;29;20060;-90
2022/09/16 09:25:55;;;;;;;11.23;2.42;;;;;;;12.23;100.00;101324.91;4958952;28;20054;-90
2022/09/16 09:29:10;;;;;;;8.18;1.63;;;;;;;12.66;100.00;101371.50;4961058;28;20055;-90
2022/09/16 09:32:11;;;;;;;9.18;1.70;;;;;;;12.35;100.00;101311.34;4902682;28;20560;-88
2022/09/16 09:34:58;;;;;;;12.43;2.08;;;;;;;12.58;100.00;101346.44;4972820;28;20055;-88
2022/09/16 09:37:52;;;;;;;14.48;2.63;;;;;;;12.62;100.00;101354.13;4952846;28;20079;-88
2022/09/16 09:40:44;;;;;;;11.88;1.67;;;;;;;12.83;100.00;101370.88;4959598;28;20051;-90
2022/09/16 09:43:19;;;;;;;14.25;2.00;;;;;;;12.22;100.00;101318.81;4964343;28;20070;-89
2022/09/16 09:46:07;;;;;;;11.30;2.05;;;;;;;12.56;100.00;101378.00;4969663;28;20054;-89
2022/09/16 09:48:44;;;;;;;12.20;2.55;;;;;;;12.90;100.00;101382.88;4954769;29;20293;-89
2022/09/16 09:51:44;;;;;;;13.20;2.50;;;;;;;13.14;100.00;101384.63;4956837;28;20618;-90
2022/09/16 09:54:26;;;;;;;9.07;1.92;;;;;;;12.62;100.00;101341.00;4955050;28;20054;-89
2022/09/16 09:57:19;;;;;;;11.07;1.83;;;;;;;12.77;100.00;101357.97;4948127;28;20055;-88
2022/09/16 09:59:49;;;;;;;21.95;2.25;;;;;;;12.52;100.00;101405.31;4964064;28;20062;-90
2022/09/16 10:02:19;;;;;;;13.95;2.22;;;;;;;12.19;100.00;101376.66;4955503;28;20054;-88
2022/09/16 10:04:47;;;;;;;11.55;3.28;;;;;;;12.07;100.00;101383.16;4956903;28;20050;-89
2022/09/16 10:07:16;;;;;;;14.35;2.30;;;;;;;12.22;100.00;101360.81;4978243;28;20051;-88
2022/09/16 10:09:50;;;;;;;11.93;2.58;;;;;;;12.50;100.00;101355.44;4954943;28;20050;-88
2022/09/16 10:12:28;;;;;;;13.65;2.17;;;;;;;12.40;100.00;101403.09;4962921;28;20493;-88
2022/09/16 10:14:55;;;;;;;13.20;2.08;;;;;;;11.96;100.00;101372.19;4964068;28;20129;-88
2022/09/16 10:17:22;;;;;;;10.15;2.03;;;;;;;12.01;100.00;101393.03;4962288;28;20108;-88
2022/09/16 10:19:54;;;;;;;14.43;1.88;;;;;;;12.01;100.00;101427.16;4962351;28;20059;-87
2022/09/16 10:22:33;;;;;;;13.65;2.30;;;;;;;12.30;100.00;101402.53;4978353;28;20042;-89
2022/09/16 10:25:06;;;;;;;12.70;2.17;;;;;;;12.52;100.00;101402.69;4963735;28;20051;-89
2022/09/16 10:27:36;;;;;;;9.32;2.30;;;;;;;12.64;100.00;101399.63;4963888;28;20054;-90
2022/09/16 10:30:09;;;;;;;11.73;2.88;;;;;;;12.59;100.00;101361.25;4964772;28;20058;-89
2022/09/16 10:32:57;;;;;;;14.48;2.40;;;;;;;12.92;100.00;101377.56;4954588;28;20058;-89
2022/09/16 10:35:26;;;;;;;10.48;2.10;;;;;;;12.98;100.00;101394.88;4959806;28;20047;-88
2022/09/16 10:38:16;;;;;;;16.15;2.30;;;;;;;13.07;100.00;101402.44;4965426;28;20055;-90
2022/09/16 10:41:21;;;;;;;15.98;2.53;;;;;;;12.67;100.00;101386.34;4982998;28;20405;-90
2022/09/16 10:44:06;;;;;;;15.73;3.55;;;;;;;12.27;100.00;101411.41;4938735;28;20047;-89
2022/09/16 10:46:33;;;;;;;12.30;2.10;;;;;;;12.03;100.00;101406.97;4965543;28;20047;-89
2022/09/16 10:49:09;;;;;;;10.00;2.22;;;;;;;11.61;100.00;101399.53;4957768;28;20047;-89
2022/09/16 10:51:36;;;;;;;14.23;2.20;;;;;;;11.77;100.00;101378.00;4977480;28;20047;-89
2022/09/16 10:54:07;;;;;;;14.45;2.58;;;;;;;11.67;100.00;101415.06;4959296;28;20105;-89
2022/09/16 10:56:47;;;;;;;8.68;1.67;;;;;;;11.54;100.00;101389.25;4958467;28;20073;-88
2022/09/16 10:59:14;;;;;;;11.45;2.58;;;;;;;12.03;100.00;101430.59;4955148;28;20481;-89
2022/09/16 11:02:19;;;;;;;16.02;2.75;;;;;;;12.65;100.00;101416.22;4958310;28;20051;-88
2022/09/16 11:05:11;;;;;;;9.80;1.73;;;;;;;12.32;100.00;101400.72;4949903;28;20054;-90
2022/09/16 11:07:44;;;;;;;7.53;1.77;;;;;;;12.89;100.00;101399.56;4964597;28;20055;-89
2022/09/16 11:10:14;;;;;;;10.00;2.63;;;;;;;12.79;100.00;101427.09;4958386;28;20432;-89
2022/09/16 11:12:52;;;;;;;7.18;1.63;;;;;;;12.89;100.00;101431.13;4942989;28;20058;-88
2022/09/16 11:15:32;;;;;;;9.10;1.75;;;;;;;13.19;100.00;101446.69;4956909;28;20701;-88
2022/09/16 11:18:18;;;;;;;11.63;1.88;;;;;;;13.53;100.00;101432.28;4961775;28;20055;-89
2022/09/16 11:21:06;;;;;;;8.15;1.80;;;;;;;13.01;100.00;101414.03;4961837;28;20101;-90
2022/09/16 11:23:51;;;;;;;10.98;2.00;;;;;;;13.18;99.15;101438.84;4975820;28;20054;-90
2022/09/16 11:26:43;;;;;;;8.85;1.80;;;;;;;13.46;97.59;101439.53;4948498;28;20053;-90
2022/09/16 11:29:42;;;;;;;13.73;1.90;;;;;;;13.65;94.44;101394.97;4945409;28;20059;-91
2022/09/16 11:32:21;;;;;;;12.30;1.45;;;;;;;13.62;100.00;101431.91;4960402;28;20480;-89
2022/09/16 11:35:06;;;;;;;9.38;2.05;;;;;;;13.53;100.00;101410.34;4962495;28;20433;-90
2022/09/16 11:37:42;;;;;;;9.20;1.58;;;;;;;13.37;100.00;101433.75;4961802;28;20047;-90
2022/09/16 11:40:29;;;;;;;8.50;1.85;;;;;;;13.23;100.00;101466.69;4961779;28;20085;-89
2022/09/16 11:43:20;;;;;;;10.63;2.05;;;;;;;12.35;100.00;101467.13;4976239;28;20153;-89
2022/09/16 11:46:22;;;;;;;11.68;1.90;;;;;;;11.66;100.00;101422.06;4969505;28;20059;-89
2022/09/16 11:49:10;;;;;;;11.10;2.08;;;;;;;12.24;100.00;101456.13;4957435;28;20117;-90
2022/09/16 11:52:09;;;;;;;9.10;1.50;;;;;;;12.38;100.00;101442.53;4960011;28;20042;-91